sensor_id;sensor_type;location;lat;lon;timestamp;pressure;altitude;pressure_sealevel;temperature;humidity
39739;BME280;25422;48.286;8.484;2022-11-15T00:00:30;93892.94;;;3.59;100.00
39739;BME280;25422;48.286;8.484;2022-11-15T00:03:15;93891.84;;;3.51;100.00
39739;BME280;25422;48.286;8.484;2022-11-15T00:06:03;93882.31;;;3.52;100.00
39739;BME280;25422;48.286;8.484;2022-11-15T00:08:48;93877.69;;;3.56;100.00
39739;BME280;25422;48.286;8.484;2022-11-15T00:11:31;93879.88;;;3.70;100.00
39739;BME280;25422;48.286;8.484;2022-11-15T00:14:15;93871.72;;;3.84;100.00
39739;BME280;25422;48.286;8.484;2022-11-15T00:16:59;93869.81;;;3.96;100.00
39739;BME280;25422;48.286;8.484;2022-11-15T00:19:43;93871.47;;;4.07;100.00
39739;BME280;25422;48.286;8.484;2022-11-15T00:22:33;93867.34;;;4.14;100.00
39739;BME280;25422;48.286;8.484;2022-11-15T00:25:17;93876.91;;;4.14;100.00
39739;BME280;25422;48.286;8.484;2022-11-15T00:28:02;93872.25;;;4.17;100.00
39739;BME280;25422;48.286;8.484;2022-11-15T00:30:46;93878.63;;;4.23;100.00
39739;BME280;25422;48.286;8.484;2022-11-15T00:33:30;93871.97;;;4.30;100.00
39739;BME280;25422;48.286;8.484;2022-11-15T00:36:14;93867.19;;;4.35;100.00
39739;BME280;25422;48.286;8.484;2022-11-15T00:38:59;93860.75;;;4.49;100.00
39739;BME280;25422;48.286;8.484;2022-11-15T00:41:42;93862.91;;;4.54;100.00
39739;BME280;25422;48.286;8.484;2022-11-15T00:44:26;93861.13;;;4.64;100.00
39739;BME280;25422;48.286;8.484;2022-11-15T00:47:10;93860.59;;;4.51;100.00
39739;BME280;25422;48.286;8.484;2022-11-15T00:49:54;93852.88;;;4.41;100.00
39739;BME280;25422;48.286;8.484;2022-11-15T00:52:38;93850.53;;;4.48;100.00
39739;BME280;25422;48.286;8.484;2022-11-15T00:55:22;93846.84;;;4.50;100.00
39739;BME280;25422;48.286;8.484;2022-11-15T00:58:06;93846.41;;;4.55;100.00
39739;BME280;25422;48.286;8.484;2022-11-15T01:00:50;93840.78;;;4.69;100.00
39739;BME280;25422;48.286;8.484;2022-11-15T01:03:35;93836.94;;;4.73;100.00
39739;BME280;25422;48.286;8.484;2022-11-15T01:06:19;93831.19;;;4.80;100.00
39739;BME280;25422;48.286;8.484;2022-11-15T01:09:03;93829.53;;;4.79;100.00
39739;BME280;25422;48.286;8.484;2022-11-15T01:11:47;93832.56;;;4.74;100.00
39739;BME280;25422;48.286;8.484;2022-11-15T01:14:31;93828.78;;;4.68;100.00
39739;BME280;25422;48.286;8.484;2022-11-15T01:17:15;93833.16;;;4.58;100.00
39739;BME280;25422;48.286;8.484;2022-11-15T01:19:59;93830.28;;;4.61;100.00
39739;BME280;25422;48.286;8.484;2022-11-15T01:22:43;93824.06;;;4.54;100.00
39739;BME280;25422;48.286;8.484;2022-11-15T01:25:27;93830.75;;;4.47;100.00
39739;BME280;25422;48.286;8.484;2022-11-15T01:28:11;93828.44;;;4.53;100.00
39739;BME280;25422;48.286;8.484;2022-11-15T01:30:58;93819.41;;;4.58;100.00
39739;BME280;25422;48.286;8.484;2022-11-15T01:33:42;93816.28;;;4.54;100.00
39739;BME280;25422;48.286;8.484;2022-11-15T01:36:26;93806.22;;;4.51;100.00
39739;BME280;25422;48.286;8.484;2022-11-15T01:39:10;93809.47;;;4.53;100.00
39739;BME280;25422;48.286;8.484;2022-11-15T01:41:54;93808.66;;;4.52;100.00
39739;BME280;25422;48.286;8.484;2022-11-15T01:44:47;93806.31;;;4.59;100.00
39739;BME280;25422;48.286;8.484;2022-11-15T01:47:36;93805.47;;;4.68;100.00
39739;BME280;25422;48.286;8.484;2022-11-15T01:50:25;93792.75;;;4.75;100.00
39739;BME280;25422;48.286;8.484;2022-11-15T01:53:11;93793.84;;;4.72;100.00
39739;BME280;25422;48.286;8.484;2022-11-15T01:55:56;93798.53;;;4.59;100.00
39739;BME280;25422;48.286;8.484;2022-11-15T01:58:41;93800.78;;;4.44;100.00
39739;BME280;25422;48.286;8.484;2022-11-15T02:01:26;93806.75;;;4.45;100.00
39739;BME280;25422;48.286;8.484;2022-11-15T02:04:15;93802.16;;;4.38;100.00
39739;BME280;25422;48.286;8.484;2022-11-15T02:07:03;93794.75;;;4.53;100.00
39739;BME280;25422;48.286;8.484;2022-11-15T02:09:48;93791.56;;;4.60;100.00
39739;BME280;25422;48.286;8.484;2022-11-15T02:12:33;93779.69;;;4.67;100.00
39739;BME280;25422;48.286;8.484;2022-11-15T02:15:18;93781.69;;;4.73;100.00
39739;BME280;25422;48.286;8.484;2022-11-15T02:30:29;93760.13;;;5.00;100.00
39739;BME280;25422;48.286;8.484;2022-11-15T02:39:36;93763.41;;;5.02;100.00
39739;BME280;25422;48.286;8.484;2022-11-15T02:42:27;93760.81;;;5.02;100.00
39739;BME280;25422;48.286;8.484;2022-11-15T02:45:37;93751.47;;;5.10;100.00
39739;BME280;25422;48.286;8.484;2022-11-15T02:48:24;93749.41;;;5.13;100.00
39739;BME280;25422;48.286;8.484;2022-11-15T02:51:10;93750.06;;;5.15;100.00
39739;BME280;25422;48.286;8.484;2022-11-15T02:53:54;93748.31;;;5.16;100.00
39739;BME280;25422;48.286;8.484;2022-11-15T02:56:38;93744.88;;;5.15;100.00
39739;BME280;25422;48.286;8.484;2022-11-15T02:59:43;93745.81;;;5.24;100.00
39739;BME280;25422;48.286;8.484;2022-11-15T03:06:04;93742.69;;;5.20;100.00
39739;BME280;25422;48.286;8.484;2022-11-15T03:11:59;93733.03;;;5.13;100.00
39739;BME280;25422;48.286;8.484;2022-11-15T03:14:54;93722.81;;;5.11;100.00
39739;BME280;25422;48.286;8.484;2022-11-15T03:17:45;93729.41;;;5.05;100.00
39739;BME280;25422;48.286;8.484;2022-11-15T03:20:32;93725.94;;;5.15;100.00
39739;BME280;25422;48.286;8.484;2022-11-15T03:23:17;93717.63;;;5.11;100.00
39739;BME280;25422;48.286;8.484;2022-11-15T03:26:01;93718.22;;;5.05;100.00
39739;BME280;25422;48.286;8.484;2022-11-15T03:28:50;93715.56;;;5.15;100.00
39739;BME280;25422;48.286;8.484;2022-11-15T03:31:40;93710.91;;;5.18;100.00
39739;BME280;25422;48.286;8.484;2022-11-15T03:37:21;93712.16;;;5.14;100.00
39739;BME280;25422;48.286;8.484;2022-11-15T03:40:06;93722.97;;;5.10;100.00
39739;BME280;25422;48.286;8.484;2022-11-15T03:45:52;93710.81;;;5.10;100.00
39739;BME280;25422;48.286;8.484;2022-11-15T03:48:43;93705.63;;;5.10;100.00
39739;BME280;25422;48.286;8.484;2022-11-15T03:51:29;93707.09;;;5.13;100.00
39739;BME280;25422;48.286;8.484;2022-11-15T03:54:14;93706.91;;;5.06;100.00
39739;BME280;25422;48.286;8.484;2022-11-15T03:56:57;93700.06;;;5.05;100.00
39739;BME280;25422;48.286;8.484;2022-11-15T03:59:42;93699.69;;;5.18;100.00
39739;BME280;25422;48.286;8.484;2022-11-15T04:02:26;93697.25;;;5.16;100.00
39739;BME280;25422;48.286;8.484;2022-11-15T04:05:10;93685.78;;;5.19;100.00
39739;BME280;25422;48.286;8.484;2022-11-15T04:07:53;93694.56;;;5.26;100.00
39739;BME280;25422;48.286;8.484;2022-11-15T04:10:38;93691.41;;;5.32;100.00
39739;BME280;25422;48.286;8.484;2022-11-15T04:13:21;93684.38;;;5.43;100.00
39739;BME280;25422;48.286;8.484;2022-11-15T04:16:06;93680.63;;;5.45;100.00
39739;BME280;25422;48.286;8.484;2022-11-15T04:18:49;93680.13;;;5.42;100.00
39739;BME280;25422;48.286;8.484;2022-11-15T04:21:54;93670.31;;;5.53;100.00
39739;BME280;25422;48.286;8.484;2022-11-15T04:24:57;93675.06;;;5.58;100.00
39739;BME280;25422;48.286;8.484;2022-11-15T04:27:41;93672.06;;;5.71;100.00
39739;BME280;25422;48.286;8.484;2022-11-15T04:30:25;93667.00;;;5.69;100.00
39739;BME280;25422;48.286;8.484;2022-11-15T04:33:09;93672.72;;;5.73;100.00
39739;BME280;25422;48.286;8.484;2022-11-15T04:35:53;93671.09;;;5.72;100.00
39739;BME280;25422;48.286;8.484;2022-11-15T04:39:06;93669.13;;;5.66;100.00
39739;BME280;25422;48.286;8.484;2022-11-15T04:41:50;93664.06;;;5.64;100.00
39739;BME280;25422;48.286;8.484;2022-11-15T04:44:35;93667.00;;;5.69;100.00
39739;BME280;25422;48.286;8.484;2022-11-15T04:47:18;93666.72;;;5.72;100.00
39739;BME280;25422;48.286;8.484;2022-11-15T04:50:03;93664.25;;;5.71;100.00
39739;BME280;25422;48.286;8.484;2022-11-15T04:52:52;93661.53;;;5.72;100.00
39739;BME280;25422;48.286;8.484;2022-11-15T04:55:37;93660.56;;;5.73;100.00
39739;BME280;25422;48.286;8.484;2022-11-15T04:58:21;93661.97;;;5.68;100.00
39739;BME280;25422;48.286;8.484;2022-11-15T05:01:09;93656.34;;;5.72;100.00
39739;BME280;25422;48.286;8.484;2022-11-15T05:03:53;93657.75;;;5.67;100.00
39739;BME280;25422;48.286;8.484;2022-11-15T05:06:56;93645.13;;;5.72;100.00
39739;BME280;25422;48.286;8.484;2022-11-15T05:09:39;93655.94;;;5.85;100.00
39739;BME280;25422;48.286;8.484;2022-11-15T05:12:27;93651.00;;;5.74;100.00
39739;BME280;25422;48.286;8.484;2022-11-15T05:15:11;93645.50;;;5.77;100.00
39739;BME280;25422;48.286;8.484;2022-11-15T05:17:58;93653.13;;;5.79;100.00
39739;BME280;25422;48.286;8.484;2022-11-15T05:20:44;93644.97;;;5.73;100.00
39739;BME280;25422;48.286;8.484;2022-11-15T05:23:28;93641.75;;;5.71;100.00
39739;BME280;25422;48.286;8.484;2022-11-15T05:26:13;93644.03;;;5.74;100.00
39739;BME280;25422;48.286;8.484;2022-11-15T05:28:59;93647.94;;;5.79;100.00
39739;BME280;25422;48.286;8.484;2022-11-15T05:31:43;93646.16;;;5.79;100.00
39739;BME280;25422;48.286;8.484;2022-11-15T05:34:27;93646.34;;;5.86;100.00
39739;BME280;25422;48.286;8.484;2022-11-15T05:37:11;93641.31;;;5.84;100.00
39739;BME280;25422;48.286;8.484;2022-11-15T05:39:55;93639.03;;;5.81;100.00
39739;BME280;25422;48.286;8.484;2022-11-15T05:42:39;93640.66;;;5.82;100.00
39739;BME280;25422;48.286;8.484;2022-11-15T05:45:23;93638.56;;;5.86;100.00
39739;BME280;25422;48.286;8.484;2022-11-15T05:48:08;93637.28;;;5.90;100.00
39739;BME280;25422;48.286;8.484;2022-11-15T05:50:53;93637.28;;;5.90;100.00
39739;BME280;25422;48.286;8.484;2022-11-15T05:53:37;93633.88;;;5.89;100.00
39739;BME280;25422;48.286;8.484;2022-11-15T05:56:21;93633.53;;;5.84;100.00
39739;BME280;25422;48.286;8.484;2022-11-15T05:59:07;93633.94;;;5.98;100.00
39739;BME280;25422;48.286;8.484;2022-11-15T06:01:51;93630.06;;;6.02;100.00
39739;BME280;25422;48.286;8.484;2022-11-15T06:04:35;93630.91;;;6.02;100.00
39739;BME280;25422;48.286;8.484;2022-11-15T06:07:20;93628.00;;;6.05;100.00
39739;BME280;25422;48.286;8.484;2022-11-15T06:10:04;93631.34;;;5.98;100.00
39739;BME280;25422;48.286;8.484;2022-11-15T06:15:42;93622.97;;;6.04;100.00
39739;BME280;25422;48.286;8.484;2022-11-15T06:18:26;93625.41;;;6.05;100.00
39739;BME280;25422;48.286;8.484;2022-11-15T06:21:11;93617.94;;;6.02;100.00
39739;BME280;25422;48.286;8.484;2022-11-15T06:23:55;93623.41;;;5.99;100.00
39739;BME280;25422;48.286;8.484;2022-11-15T06:26:38;93626.00;;;5.99;100.00
39739;BME280;25422;48.286;8.484;2022-11-15T06:29:23;93614.59;;;5.92;100.00
39739;BME280;25422;48.286;8.484;2022-11-15T06:32:07;93624.41;;;5.98;100.00
39739;BME280;25422;48.286;8.484;2022-11-15T06:34:51;93624.88;;;6.02;100.00
39739;BME280;25422;48.286;8.484;2022-11-15T06:37:35;93622.44;;;6.00;100.00
39739;BME280;25422;48.286;8.484;2022-11-15T06:40:19;93620.34;;;6.04;100.00
39739;BME280;25422;48.286;8.484;2022-11-15T06:43:04;93623.25;;;6.01;100.00
39739;BME280;25422;48.286;8.484;2022-11-15T06:45:48;93618.25;;;6.07;100.00
39739;BME280;25422;48.286;8.484;2022-11-15T06:48:33;93625.56;;;6.04;100.00
39739;BME280;25422;48.286;8.484;2022-11-15T06:51:17;93622.47;;;6.08;100.00
39739;BME280;25422;48.286;8.484;2022-11-15T06:54:02;93626.03;;;6.07;100.00
39739;BME280;25422;48.286;8.484;2022-11-15T06:56:46;93630.47;;;6.15;100.00
39739;BME280;25422;48.286;8.484;2022-11-15T06:59:30;93639.25;;;6.22;100.00
39739;BME280;25422;48.286;8.484;2022-11-15T07:02:15;93631.47;;;6.22;100.00
39739;BME280;25422;48.286;8.484;2022-11-15T07:04:59;93630.34;;;6.25;100.00
39739;BME280;25422;48.286;8.484;2022-11-15T07:07:43;93637.31;;;6.24;100.00
39739;BME280;25422;48.286;8.484;2022-11-15T07:10:34;93645.28;;;6.23;100.00
39739;BME280;25422;48.286;8.484;2022-11-15T07:13:18;93642.03;;;6.29;100.00
39739;BME280;25422;48.286;8.484;2022-11-15T07:16:07;93650.50;;;6.31;100.00
39739;BME280;25422;48.286;8.484;2022-11-15T07:18:51;93644.53;;;6.39;100.00
39739;BME280;25422;48.286;8.484;2022-11-15T07:21:36;93645.69;;;6.45;100.00
39739;BME280;25422;48.286;8.484;2022-11-15T07:24:20;93647.44;;;6.44;100.00
39739;BME280;25422;48.286;8.484;2022-11-15T07:27:04;93648.75;;;6.48;100.00
39739;BME280;25422;48.286;8.484;2022-11-15T07:29:48;93650.56;;;6.48;100.00
39739;BME280;25422;48.286;8.484;2022-11-15T07:32:32;93647.44;;;6.44;100.00
39739;BME280;25422;48.286;8.484;2022-11-15T07:35:16;93637.56;;;6.48;100.00
39739;BME280;25422;48.286;8.484;2022-11-15T07:38:01;93641.31;;;6.53;100.00
39739;BME280;25422;48.286;8.484;2022-11-15T07:40:46;93635.16;;;6.54;100.00
39739;BME280;25422;48.286;8.484;2022-11-15T07:43:31;93648.16;;;6.63;100.00
39739;BME280;25422;48.286;8.484;2022-11-15T07:46:17;93645.25;;;6.74;100.00
39739;BME280;25422;48.286;8.484;2022-11-15T07:49:01;93637.81;;;6.79;100.00
39739;BME280;25422;48.286;8.484;2022-11-15T07:51:46;93640.25;;;6.89;100.00
39739;BME280;25422;48.286;8.484;2022-11-15T07:54:29;93637.03;;;7.12;100.00
39739;BME280;25422;48.286;8.484;2022-11-15T07:57:13;93642.06;;;7.38;100.00
39739;BME280;25422;48.286;8.484;2022-11-15T07:59:57;93634.28;;;7.46;100.00
39739;BME280;25422;48.286;8.484;2022-11-15T08:02:42;93643.41;;;7.50;100.00
39739;BME280;25422;48.286;8.484;2022-11-15T08:05:25;93643.41;;;7.50;100.00
39739;BME280;25422;48.286;8.484;2022-11-15T08:08:10;93643.88;;;7.54;100.00
39739;BME280;25422;48.286;8.484;2022-11-15T08:10:54;93642.09;;;7.54;100.00
39739;BME280;25422;48.286;8.484;2022-11-15T08:13:40;93645.00;;;7.43;100.00
39739;BME280;25422;48.286;8.484;2022-11-15T08:16:24;93646.63;;;7.44;100.00
39739;BME280;25422;48.286;8.484;2022-11-15T08:19:08;93639.97;;;7.33;100.00
39739;BME280;25422;48.286;8.484;2022-11-15T08:21:52;93633.63;;;7.36;100.00
39739;BME280;25422;48.286;8.484;2022-11-15T08:24:36;93631.66;;;7.38;100.00
39739;BME280;25422;48.286;8.484;2022-11-15T08:27:20;93637.88;;;7.37;100.00
39739;BME280;25422;48.286;8.484;2022-11-15T08:30:04;93632.16;;;7.41;100.00
39739;BME280;25422;48.286;8.484;2022-11-15T08:32:50;93632.31;;;7.40;100.00
39739;BME280;25422;48.286;8.484;2022-11-15T08:35:34;93628.25;;;7.46;100.00
39739;BME280;25422;48.286;8.484;2022-11-15T08:38:18;93621.09;;;7.64;100.00
39739;BME280;25422;48.286;8.484;2022-11-15T08:41:03;93620.28;;;7.72;100.00
39739;BME280;25422;48.286;8.484;2022-11-15T08:43:48;93623.34;;;7.75;100.00
39739;BME280;25422;48.286;8.484;2022-11-15T08:46:32;93612.41;;;7.88;100.00
39739;BME280;25422;48.286;8.484;2022-11-15T08:49:16;93614.97;;;8.05;100.00
39739;BME280;25422;48.286;8.484;2022-11-15T08:52:00;93618.34;;;8.14;100.00
39739;BME280;25422;48.286;8.484;2022-11-15T08:54:44;93613.44;;;8.19;100.00
39739;BME280;25422;48.286;8.484;2022-11-15T08:57:29;93610.63;;;8.28;100.00
39739;BME280;25422;48.286;8.484;2022-11-15T09:00:16;93608.13;;;8.43;100.00
39739;BME280;25422;48.286;8.484;2022-11-15T09:03:04;93605.75;;;8.65;100.00
39739;BME280;25422;48.286;8.484;2022-11-15T09:05:54;93606.72;;;8.72;100.00
39739;BME280;25422;48.286;8.484;2022-11-15T09:08:38;93609.34;;;8.72;100.00
39739;BME280;25422;48.286;8.484;2022-11-15T09:11:23;93602.13;;;8.74;100.00
39739;BME280;25422;48.286;8.484;2022-11-15T09:14:07;93597.75;;;8.67;100.00
39739;BME280;25422;48.286;8.484;2022-11-15T09:16:51;93596.00;;;8.67;100.00
39739;BME280;25422;48.286;8.484;2022-11-15T09:19:35;93600.81;;;8.78;100.00
39739;BME280;25422;48.286;8.484;2022-11-15T09:22:19;93598.66;;;8.82;100.00
39739;BME280;25422;48.286;8.484;2022-11-15T09:25:03;93593.56;;;8.89;100.00
39739;BME280;25422;48.286;8.484;2022-11-15T09:27:47;93595.53;;;9.10;100.00
39739;BME280;25422;48.286;8.484;2022-11-15T09:30:31;93599.75;;;9.11;100.00
39739;BME280;25422;48.286;8.484;2022-11-15T09:33:15;93596.41;;;9.25;100.00
39739;BME280;25422;48.286;8.484;2022-11-15T09:36:04;93601.38;;;9.35;100.00
39739;BME280;25422;48.286;8.484;2022-11-15T09:38:48;93589.53;;;9.48;100.00
39739;BME280;25422;48.286;8.484;2022-11-15T09:41:55;93586.28;;;9.45;100.00
39739;BME280;25422;48.286;8.484;2022-11-15T09:50:59;93592.63;;;9.28;100.00
39739;BME280;25422;48.286;8.484;2022-11-15T09:53:31;93587.75;;;9.25;100.00
39739;BME280;25422;48.286;8.484;2022-11-15T09:56:03;93589.66;;;9.31;100.00
39739;BME280;25422;48.286;8.484;2022-11-15T09:58:39;93588.41;;;9.27;100.00
39739;BME280;25422;48.286;8.484;2022-11-15T10:01:14;93589.44;;;9.18;100.00
39739;BME280;25422;48.286;8.484;2022-11-15T10:03:42;93592.06;;;9.18;100.00
39739;BME280;25422;48.286;8.484;2022-11-15T10:06:23;93578.41;;;9.07;100.00
39739;BME280;25422;48.286;8.484;2022-11-15T10:09:01;93585.75;;;9.12;100.00
39739;BME280;25422;48.286;8.484;2022-11-15T10:11:32;93588.00;;;9.15;100.00
39739;BME280;25422;48.286;8.484;2022-11-15T10:14:04;93587.00;;;9.16;100.00
39739;BME280;25422;48.286;8.484;2022-11-15T10:16:37;93588.81;;;9.16;100.00
39739;BME280;25422;48.286;8.484;2022-11-15T10:24:25;93579.97;;;9.17;100.00
39739;BME280;25422;48.286;8.484;2022-11-15T10:26:51;93583.50;;;9.09;100.00
39739;BME280;25422;48.286;8.484;2022-11-15T10:29:20;93569.44;;;9.10;100.00
39739;BME280;25422;48.286;8.484;2022-11-15T10:31:46;93567.69;;;9.25;100.00
39739;BME280;25422;48.286;8.484;2022-11-15T10:34:16;93566.94;;;9.17;100.00
39739;BME280;25422;48.286;8.484;2022-11-15T10:36:47;93563.16;;;9.19;100.00
39739;BME280;25422;48.286;8.484;2022-11-15T10:39:19;93563.13;;;9.42;100.00
39739;BME280;25422;48.286;8.484;2022-11-15T10:41:44;93555.31;;;9.57;100.00
39739;BME280;25422;48.286;8.484;2022-11-15T10:46:40;93551.63;;;9.82;100.00
39739;BME280;25422;48.286;8.484;2022-11-15T10:49:24;93550.19;;;9.79;100.00
39739;BME280;25422;48.286;8.484;2022-11-15T10:51:54;93544.53;;;9.90;100.00
39739;BME280;25422;48.286;8.484;2022-11-15T10:54:24;93536.50;;;10.07;100.00
39739;BME280;25422;48.286;8.484;2022-11-15T10:56:54;93530.63;;;10.05;100.00
39739;BME280;25422;48.286;8.484;2022-11-15T10:59:27;93537.72;;;10.26;100.00
39739;BME280;25422;48.286;8.484;2022-11-15T11:01:53;93530.34;;;10.44;100.00
39739;BME280;25422;48.286;8.484;2022-11-15T11:04:20;93524.53;;;10.49;100.00
39739;BME280;25422;48.286;8.484;2022-11-15T11:09:24;93513.25;;;10.63;100.00
39739;BME280;25422;48.286;8.484;2022-11-15T11:11:53;93509.41;;;10.88;100.00
39739;BME280;25422;48.286;8.484;2022-11-15T11:14:26;93507.81;;;11.08;100.00
39739;BME280;25422;48.286;8.484;2022-11-15T11:16:57;93504.22;;;11.16;100.00
39739;BME280;25422;48.286;8.484;2022-11-15T11:19:43;93499.91;;;11.30;100.00
39739;BME280;25422;48.286;8.484;2022-11-15T11:22:22;93491.53;;;11.41;100.00
39739;BME280;25422;48.286;8.484;2022-11-15T11:25:00;93485.78;;;11.31;100.00
39739;BME280;25422;48.286;8.484;2022-11-15T11:30:11;93484.25;;;11.43;100.00
39739;BME280;25422;48.286;8.484;2022-11-15T11:33:01;93485.03;;;11.66;100.00
39739;BME280;25422;48.286;8.484;2022-11-15T11:35:40;93468.69;;;11.63;100.00
39739;BME280;25422;48.286;8.484;2022-11-15T11:38:39;93481.25;;;11.75;100.00
39739;BME280;25422;48.286;8.484;2022-11-15T11:41:23;93472.44;;;11.89;100.00
39739;BME280;25422;48.286;8.484;2022-11-15T11:44:14;93470.41;;;11.85;100.00
39739;BME280;25422;48.286;8.484;2022-11-15T11:49:10;93478.41;;;12.05;100.00
39739;BME280;25422;48.286;8.484;2022-11-15T11:51:45;93477.00;;;12.09;100.00
39739;BME280;25422;48.286;8.484;2022-11-15T11:54:17;93473.34;;;12.03;100.00
39739;BME280;25422;48.286;8.484;2022-11-15T11:56:45;93470.19;;;11.79;100.00
39739;BME280;25422;48.286;8.484;2022-11-15T12:02:18;93474.56;;;11.37;100.00
39739;BME280;25422;48.286;8.484;2022-11-15T12:04:50;93470.09;;;11.31;100.00
39739;BME280;25422;48.286;8.484;2022-11-15T12:07:32;93472.53;;;11.04;100.00
39739;BME280;25422;48.286;8.484;2022-11-15T12:13:04;93470.69;;;10.55;100.00
39739;BME280;25422;48.286;8.484;2022-11-15T12:15:40;93462.34;;;10.44;100.00
39739;BME280;25422;48.286;8.484;2022-11-15T12:18:09;93462.91;;;10.40;100.00
39739;BME280;25422;48.286;8.484;2022-11-15T12:20:38;93456.09;;;10.45;100.00
39739;BME280;25422;48.286;8.484;2022-11-15T12:23:15;93454.16;;;10.33;100.00
39739;BME280;25422;48.286;8.484;2022-11-15T12:26:00;93441.63;;;10.28;100.00
39739;BME280;25422;48.286;8.484;2022-11-15T12:28:39;93440.19;;;10.25;100.00
39739;BME280;25422;48.286;8.484;2022-11-15T12:31:13;93440.03;;;10.27;100.00
39739;BME280;25422;48.286;8.484;2022-11-15T12:33:43;93431.69;;;10.38;100.00
39739;BME280;25422;48.286;8.484;2022-11-15T12:39:07;93424.16;;;10.28;100.00
39739;BME280;25422;48.286;8.484;2022-11-15T12:41:39;93421.94;;;10.32;100.00
39739;BME280;25422;48.286;8.484;2022-11-15T12:44:11;93416.50;;;10.27;100.00
39739;BME280;25422;48.286;8.484;2022-11-15T12:59:48;93403.78;;;10.24;100.00
39739;BME280;25422;48.286;8.484;2022-11-15T13:02:23;93395.75;;;10.25;100.00
39739;BME280;25422;48.286;8.484;2022-11-15T13:04:50;93392.19;;;10.33;100.00
39739;BME280;25422;48.286;8.484;2022-11-15T13:12:57;93371.78;;;10.22;100.00
39739;BME280;25422;48.286;8.484;2022-11-15T13:18:29;93370.91;;;10.15;100.00
39739;BME280;25422;48.286;8.484;2022-11-15T13:20:55;93368.47;;;10.13;100.00
39739;BME280;25422;48.286;8.484;2022-11-15T13:23:21;93368.19;;;10.01;100.00
39739;BME280;25422;48.286;8.484;2022-11-15T13:26:10;93359.97;;;10.04;100.00
39739;BME280;25422;48.286;8.484;2022-11-15T13:28:37;93357.81;;;10.08;100.00
39739;BME280;25422;48.286;8.484;2022-11-15T13:31:22;93352.13;;;10.04;100.00
39739;BME280;25422;48.286;8.484;2022-11-15T13:33:48;93349.31;;;10.06;100.00
39739;BME280;25422;48.286;8.484;2022-11-15T13:36:47;93343.66;;;10.02;100.00
39739;BME280;25422;48.286;8.484;2022-11-15T13:39:32;93343.66;;;10.02;100.00
39739;BME280;25422;48.286;8.484;2022-11-15T13:41:58;93343.66;;;10.02;100.00
39739;BME280;25422;48.286;8.484;2022-11-15T13:44:26;93341.66;;;10.04;100.00
39739;BME280;25422;48.286;8.484;2022-11-15T13:47:06;93332.53;;;9.93;100.00
39739;BME280;25422;48.286;8.484;2022-11-15T13:49:33;93326.50;;;9.93;100.00
39739;BME280;25422;48.286;8.484;2022-11-15T13:52:01;93324.25;;;9.90;100.00
39739;BME280;25422;48.286;8.484;2022-11-15T13:54:31;93329.72;;;9.95;100.00
39739;BME280;25422;48.286;8.484;2022-11-15T13:57:20;93327.09;;;9.95;100.00
39739;BME280;25422;48.286;8.484;2022-11-15T13:59:56;93328.03;;;9.87;100.00
39739;BME280;25422;48.286;8.484;2022-11-15T14:02:27;93332.06;;;9.90;100.00
39739;BME280;25422;48.286;8.484;2022-11-15T14:05:02;93328.22;;;9.86;100.00
39739;BME280;25422;48.286;8.484;2022-11-15T14:07:29;93325.97;;;9.83;100.00
39739;BME280;25422;48.286;8.484;2022-11-15T14:09:55;93326.09;;;9.74;100.00
39739;BME280;25422;48.286;8.484;2022-11-15T14:12:33;93320.25;;;9.72;100.00
39739;BME280;25422;48.286;8.484;2022-11-15T14:15:02;93315.31;;;9.62;100.00
39739;BME280;25422;48.286;8.484;2022-11-15T14:17:43;93319.03;;;9.53;100.00
39739;BME280;25422;48.286;8.484;2022-11-15T14:20:24;93314.13;;;9.43;100.00
39739;BME280;25422;48.286;8.484;2022-11-15T14:22:53;93306.41;;;9.35;100.00
39739;BME280;25422;48.286;8.484;2022-11-15T14:25:24;93311.72;;;9.27;100.00
39739;BME280;25422;48.286;8.484;2022-11-15T14:30:49;93307.69;;;9.09;100.00
39739;BME280;25422;48.286;8.484;2022-11-15T14:33:37;93299.31;;;8.99;100.00
39739;BME280;25422;48.286;8.484;2022-11-15T14:36:13;93293.22;;;8.92;100.00
39739;BME280;25422;48.286;8.484;2022-11-15T14:38:40;93289.34;;;8.88;100.00
39739;BME280;25422;48.286;8.484;2022-11-15T14:41:20;93284.84;;;8.82;100.00
39739;BME280;25422;48.286;8.484;2022-11-15T14:43:45;93283.59;;;8.77;100.00
39739;BME280;25422;48.286;8.484;2022-11-15T14:46:11;93288.19;;;8.75;100.00
39739;BME280;25422;48.286;8.484;2022-11-15T14:48:36;93290.72;;;8.69;100.00
39739;BME280;25422;48.286;8.484;2022-11-15T14:51:02;93272.81;;;8.66;100.00
39739;BME280;25422;48.286;8.484;2022-11-15T14:53:28;93260.59;;;8.66;100.00
39739;BME280;25422;48.286;8.484;2022-11-15T14:55:53;93256.00;;;8.68;100.00
39739;BME280;25422;48.286;8.484;2022-11-15T14:58:18;93244.41;;;8.71;100.00
39739;BME280;25422;48.286;8.484;2022-11-15T15:00:44;93251.22;;;8.72;100.00
39739;BME280;25422;48.286;8.484;2022-11-15T15:03:10;93248.63;;;8.72;100.00
39739;BME280;25422;48.286;8.484;2022-11-15T15:05:38;93239.00;;;8.72;100.00
39739;BME280;25422;48.286;8.484;2022-11-15T15:08:05;93242.59;;;8.71;100.00
39739;BME280;25422;48.286;8.484;2022-11-15T15:10:33;93240.19;;;8.70;100.00
39739;BME280;25422;48.286;8.484;2022-11-15T15:12:59;93235.31;;;8.67;100.00
39739;BME280;25422;48.286;8.484;2022-11-15T15:15:27;93232.53;;;8.68;100.00
39739;BME280;25422;48.286;8.484;2022-11-15T15:17:54;93233.25;;;8.62;100.00
39739;BME280;25422;48.286;8.484;2022-11-15T15:20:20;93230.19;;;8.58;100.00
39739;BME280;25422;48.286;8.484;2022-11-15T15:22:45;93214.66;;;8.50;100.00
39739;BME280;25422;48.286;8.484;2022-11-15T15:25:23;93221.66;;;8.50;100.00
39739;BME280;25422;48.286;8.484;2022-11-15T15:27:49;93227.06;;;8.48;100.00
39739;BME280;25422;48.286;8.484;2022-11-15T15:30:14;93217.00;;;8.45;100.00
39739;BME280;25422;48.286;8.484;2022-11-15T15:32:40;93218.13;;;8.42;100.00
39739;BME280;25422;48.286;8.484;2022-11-15T15:35:07;93218.22;;;8.34;100.00
39739;BME280;25422;48.286;8.484;2022-11-15T15:37:36;93220.38;;;8.31;100.00